sensor_id;sensor_type;location;lat;lon;timestamp;pressure;altitude;pressure_sealevel;temperature;humidity
69780;BME280;57052;55.602;38.096;2023-07-22T00:02:22;99628.09;;;17.29;58.26
69780;BME280;57052;55.602;38.096;2023-07-22T00:04:49;99634.72;;;17.28;58.73
69780;BME280;57052;55.602;38.096;2023-07-22T00:07:14;99631.00;;;17.24;58.67
69780;BME280;57052;55.602;38.096;2023-07-22T00:09:41;99635.19;;;17.21;58.72
69780;BME280;57052;55.602;38.096;2023-07-22T00:12:08;99640.22;;;17.19;58.76
69780;BME280;57052;55.602;38.096;2023-07-22T00:14:39;99632.06;;;17.11;59.30
69780;BME280;57052;55.602;38.096;2023-07-22T00:17:06;99626.88;;;17.09;58.96
69780;BME280;57052;55.602;38.096;2023-07-22T00:19:31;99639.09;;;17.12;58.91
69780;BME280;57052;55.602;38.096;2023-07-22T00:21:58;99624.97;;;17.01;58.85
69780;BME280;57052;55.602;38.096;2023-07-22T00:24:23;99643.00;;;17.11;58.97
69780;BME280;57052;55.602;38.096;2023-07-22T00:26:49;99638.97;;;17.08;58.84
69780;BME280;57052;55.602;38.096;2023-07-22T00:29:16;99645.22;;;17.09;59.29
69780;BME280;57052;55.602;38.096;2023-07-22T00:31:42;99642.34;;;17.05;59.03
69780;BME280;57052;55.602;38.096;2023-07-22T00:34:08;99626.31;;;16.95;59.26
69780;BME280;57052;55.602;38.096;2023-07-22T00:36:33;99644.63;;;17.03;59.39
69780;BME280;57052;55.602;38.096;2023-07-22T00:38:59;99633.34;;;16.96;59.70
69780;BME280;57052;55.602;38.096;2023-07-22T00:41:27;99637.72;;;16.97;59.59
69780;BME280;57052;55.602;38.096;2023-07-22T00:43:54;99650.09;;;16.95;59.66
69780;BME280;57052;55.602;38.096;2023-07-22T00:46:20;99625.38;;;16.83;59.46
69780;BME280;57052;55.602;38.096;2023-07-22T00:48:46;99641.78;;;16.83;59.71
69780;BME280;57052;55.602;38.096;2023-07-22T00:51:13;99644.16;;;16.84;59.72
69780;BME280;57052;55.602;38.096;2023-07-22T00:53:38;99648.34;;;16.82;59.83
69780;BME280;57052;55.602;38.096;2023-07-22T00:56:04;99649.66;;;16.76;60.10
69780;BME280;57052;55.602;38.096;2023-07-22T00:58:30;99656.25;;;16.75;60.36
69780;BME280;57052;55.602;38.096;2023-07-22T01:00:56;99647.41;;;16.69;60.37
69780;BME280;57052;55.602;38.096;2023-07-22T01:03:21;99664.63;;;16.70;60.19
69780;BME280;57052;55.602;38.096;2023-07-22T01:05:47;99646.94;;;16.58;60.29
69780;BME280;57052;55.602;38.096;2023-07-22T01:08:14;99669.28;;;16.60;60.27
69780;BME280;57052;55.602;38.096;2023-07-22T01:10:40;99651.09;;;16.47;60.49
69780;BME280;57052;55.602;38.096;2023-07-22T01:13:05;99675.22;;;16.54;60.60
69780;BME280;57052;55.602;38.096;2023-07-22T01:15:32;99660.88;;;16.48;60.64
69780;BME280;57052;55.602;38.096;2023-07-22T01:17:58;99629.09;;;16.27;60.56
69780;BME280;57052;55.602;38.096;2023-07-22T01:20:30;99680.22;;;16.52;61.13
69780;BME280;57052;55.602;38.096;2023-07-22T01:22:56;99680.22;;;16.52;60.64
69780;BME280;57052;55.602;38.096;2023-07-22T01:25:22;99665.88;;;16.46;60.62
69780;BME280;57052;55.602;38.096;2023-07-22T01:27:52;99672.63;;;16.49;60.68
69780;BME280;57052;55.602;38.096;2023-07-22T01:30:18;99652.53;;;16.36;60.88
69780;BME280;57052;55.602;38.096;2023-07-22T01:32:45;99668.78;;;16.41;61.10
69780;BME280;57052;55.602;38.096;2023-07-22T01:35:12;99684.53;;;16.44;61.29
69780;BME280;57052;55.602;38.096;2023-07-22T01:37:37;99672.47;;;16.37;61.38
69780;BME280;57052;55.602;38.096;2023-07-22T01:40:03;99678.88;;;16.41;61.30
69780;BME280;57052;55.602;38.096;2023-07-22T01:42:39;99681.94;;;16.39;61.36
69780;BME280;57052;55.602;38.096;2023-07-22T01:45:05;99681.16;;;16.39;61.50
69780;BME280;57052;55.602;38.096;2023-07-22T01:47:36;99686.75;;;16.34;61.56
69780;BME280;57052;55.602;38.096;2023-07-22T01:50:05;99685.47;;;16.31;61.59
69780;BME280;57052;55.602;38.096;2023-07-22T01:52:32;99690.94;;;16.31;61.31
69780;BME280;57052;55.602;38.096;2023-07-22T01:54:58;99694.00;;;16.30;61.32
69780;BME280;57052;55.602;38.096;2023-07-22T01:57:23;99684.19;;;16.20;61.50
69780;BME280;57052;55.602;38.096;2023-07-22T01:59:49;99687.72;;;16.29;61.50
69780;BME280;57052;55.602;38.096;2023-07-22T02:02:14;99692.38;;;16.29;61.54
69780;BME280;57052;55.602;38.096;2023-07-22T02:04:40;99699.78;;;16.28;61.51
69780;BME280;57052;55.602;38.096;2023-07-22T02:07:06;99694.97;;;16.25;61.66
69780;BME280;57052;55.602;38.096;2023-07-22T02:09:32;99701.53;;;16.24;61.53
69780;BME280;57052;55.602;38.096;2023-07-22T02:11:58;99696.09;;;16.24;61.74
69780;BME280;57052;55.602;38.096;2023-07-22T02:14:24;99689.66;;;16.20;61.70
69780;BME280;57052;55.602;38.096;2023-07-22T02:16:50;99701.53;;;16.24;61.76
69780;BME280;57052;55.602;38.096;2023-07-22T02:19:16;99693.84;;;16.18;61.98
69780;BME280;57052;55.602;38.096;2023-07-22T02:21:41;99701.88;;;16.23;61.90
69780;BME280;57052;55.602;38.096;2023-07-22T02:24:08;99703.94;;;16.17;61.97
69780;BME280;57052;55.602;38.096;2023-07-22T02:26:34;99707.50;;;16.18;62.00
69780;BME280;57052;55.602;38.096;2023-07-22T02:28:59;99706.34;;;16.19;62.00
69780;BME280;57052;55.602;38.096;2023-07-22T02:31:25;99709.06;;;16.19;62.01
69780;BME280;57052;55.602;38.096;2023-07-22T02:33:51;99702.31;;;16.16;62.13
69780;BME280;57052;55.602;38.096;2023-07-22T02:36:16;99701.22;;;16.17;62.13
69780;BME280;57052;55.602;38.096;2023-07-22T02:38:42;99703.94;;;16.17;62.08
69780;BME280;57052;55.602;38.096;2023-07-22T02:41:08;99713.44;;;16.20;62.22
69780;BME280;57052;55.602;38.096;2023-07-22T02:43:34;99709.75;;;16.16;62.13
69780;BME280;57052;55.602;38.096;2023-07-22T02:46:05;99718.56;;;16.21;62.46
69780;BME280;57052;55.602;38.096;2023-07-22T02:48:33;99708.44;;;16.22;62.43
69780;BME280;57052;55.602;38.096;2023-07-22T02:51:07;99711.19;;;16.22;63.14
69780;BME280;57052;55.602;38.096;2023-07-22T02:53:33;99702.03;;;16.18;62.32
69780;BME280;57052;55.602;38.096;2023-07-22T02:56:00;99701.22;;;16.17;62.42
69780;BME280;57052;55.602;38.096;2023-07-22T02:58:26;99710.22;;;16.26;62.26
69780;BME280;57052;55.602;38.096;2023-07-22T03:00:52;99713.13;;;16.30;62.33
69780;BME280;57052;55.602;38.096;2023-07-22T03:03:17;99707.31;;;16.31;62.34
69780;BME280;57052;55.602;38.096;2023-07-22T03:05:44;99706.69;;;16.34;62.26
69780;BME280;57052;55.602;38.096;2023-07-22T03:08:10;99714.88;;;16.34;62.35
69780;BME280;57052;55.602;38.096;2023-07-22T03:10:36;99714.25;;;16.37;62.38
69780;BME280;57052;55.602;38.096;2023-07-22T03:13:01;99718.56;;;16.38;62.37
69780;BME280;57052;55.602;38.096;2023-07-22T03:15:29;99704.44;;;16.36;62.43
69780;BME280;57052;55.602;38.096;2023-07-22T03:17:55;99719.56;;;16.42;62.33
69780;BME280;57052;55.602;38.096;2023-07-22T03:20:22;99705.56;;;16.44;62.76
69780;BME280;57052;55.602;38.096;2023-07-22T03:22:49;99713.63;;;16.40;62.69
69780;BME280;57052;55.602;38.096;2023-07-22T03:25:15;99725.50;;;16.44;62.77
69780;BME280;57052;55.602;38.096;2023-07-22T03:27:46;99714.41;;;16.49;62.57
69780;BME280;57052;55.602;38.096;2023-07-22T03:30:13;99716.03;;;16.50;62.78
69780;BME280;57052;55.602;38.096;2023-07-22T03:32:44;99720.88;;;16.53;62.75
69780;BME280;57052;55.602;38.096;2023-07-22T03:35:10;99707.53;;;16.52;62.70
69780;BME280;57052;55.602;38.096;2023-07-22T03:37:37;99714.59;;;16.61;62.57
69780;BME280;57052;55.602;38.096;2023-07-22T03:40:04;99713.50;;;16.62;62.54
69780;BME280;57052;55.602;38.096;2023-07-22T03:42:37;99714.44;;;16.66;62.71
69780;BME280;57052;55.602;38.096;2023-07-22T03:45:03;99717.66;;;16.68;62.69
69780;BME280;57052;55.602;38.096;2023-07-22T03:47:29;99722.97;;;16.74;62.65
69780;BME280;57052;55.602;38.096;2023-07-22T03:49:55;99722.03;;;16.78;62.53
69780;BME280;57052;55.602;38.096;2023-07-22T03:52:21;99712.03;;;16.74;62.58
69780;BME280;57052;55.602;38.096;2023-07-22T03:54:47;99720.09;;;16.70;62.69
69780;BME280;57052;55.602;38.096;2023-07-22T03:57:12;99736.31;;;16.84;62.64
69780;BME280;57052;55.602;38.096;2023-07-22T03:59:39;99738.41;;;16.87;62.57
69780;BME280;57052;55.602;38.096;2023-07-22T04:02:05;99735.19;;;16.93;62.40
69780;BME280;57052;55.602;38.096;2023-07-22T04:04:31;99727.63;;;16.90;62.48
69780;BME280;57052;55.602;38.096;2023-07-22T04:06:56;99732.91;;;17.04;62.49
69780;BME280;57052;55.602;38.096;2023-07-22T04:09:22;99730.97;;;17.04;62.17
69780;BME280;57052;55.602;38.096;2023-07-22T04:11:48;99740.00;;;17.13;62.25
69780;BME280;57052;55.602;38.096;2023-07-22T04:14:13;99737.88;;;17.19;62.18
69780;BME280;57052;55.602;38.096;2023-07-22T04:16:39;99734.00;;;17.20;62.09
69780;BME280;57052;55.602;38.096;2023-07-22T04:19:05;99726.94;;;17.19;61.99
69780;BME280;57052;55.602;38.096;2023-07-22T04:21:31;99729.97;;;17.26;61.93
69780;BME280;57052;55.602;38.096;2023-07-22T04:23:57;99733.50;;;17.35;61.76
69780;BME280;57052;55.602;38.096;2023-07-22T04:26:22;99739.25;;;17.42;61.77
69780;BME280;57052;55.602;38.096;2023-07-22T04:28:48;99744.56;;;17.47;61.65
69780;BME280;57052;55.602;38.096;2023-07-22T04:31:14;99742.16;;;17.46;61.54
69780;BME280;57052;55.602;38.096;2023-07-22T04:33:39;99757.44;;;17.55;61.27
69780;BME280;57052;55.602;38.096;2023-07-22T04:36:07;99728.78;;;17.44;61.13
69780;BME280;57052;55.602;38.096;2023-07-22T04:38:32;99742.44;;;17.61;60.76
69780;BME280;57052;55.602;38.096;2023-07-22T04:40:58;99754.50;;;17.69;61.04
69780;BME280;57052;55.602;38.096;2023-07-22T04:43:26;99751.56;;;17.74;60.86
69780;BME280;57052;55.602;38.096;2023-07-22T04:45:52;99751.38;;;17.79;60.57
69780;BME280;57052;55.602;38.096;2023-07-22T04:48:20;99756.56;;;17.80;60.45
69780;BME280;57052;55.602;38.096;2023-07-22T04:50:46;99759.41;;;17.84;60.44
69780;BME280;57052;55.602;38.096;2023-07-22T04:53:12;99755.03;;;17.91;60.43
69780;BME280;57052;55.602;38.096;2023-07-22T04:55:41;99755.66;;;17.97;60.35
69780;BME280;57052;55.602;38.096;2023-07-22T04:58:07;99751.63;;;18.03;60.20
69780;BME280;57052;55.602;38.096;2023-07-22T05:00:34;99749.19;;;18.02;60.21
69780;BME280;57052;55.602;38.096;2023-07-22T05:03:00;99763.31;;;18.12;59.97
69780;BME280;57052;55.602;38.096;2023-07-22T05:05:26;99761.19;;;18.18;60.25
69780;BME280;57052;55.602;38.096;2023-07-22T05:07:51;99733.44;;;17.99;59.83
69780;BME280;57052;55.602;38.096;2023-07-22T05:10:18;99765.84;;;18.26;59.63
69780;BME280;57052;55.602;38.096;2023-07-22T05:12:45;99764.50;;;18.32;59.77
69780;BME280;57052;55.602;38.096;2023-07-22T05:15:12;99759.97;;;18.36;59.63
69780;BME280;57052;55.602;38.096;2023-07-22T05:17:39;99760.63;;;18.33;59.61
69780;BME280;57052;55.602;38.096;2023-07-22T05:20:05;99761.38;;;18.42;59.51
69780;BME280;57052;55.602;38.096;2023-07-22T05:22:40;99744.81;;;18.38;59.54
69780;BME280;57052;55.602;38.096;2023-07-22T05:25:07;99755.53;;;18.52;59.19
69780;BME280;57052;55.602;38.096;2023-07-22T05:27:33;99749.03;;;18.56;59.16
69780;BME280;57052;55.602;38.096;2023-07-22T05:29:59;99757.88;;;18.62;58.89
69780;BME280;57052;55.602;38.096;2023-07-22T05:32:28;99744.72;;;18.55;58.79
69780;BME280;57052;55.602;38.096;2023-07-22T05:34:55;99758.63;;;18.71;58.42
69780;BME280;57052;55.602;38.096;2023-07-22T05:37:22;99754.59;;;18.69;58.16
69780;BME280;57052;55.602;38.096;2023-07-22T05:39:48;99752.94;;;18.76;58.06
69780;BME280;57052;55.602;38.096;2023-07-22T05:42:14;99756.75;;;18.84;57.82
69780;BME280;57052;55.602;38.096;2023-07-22T05:44:39;99750.78;;;18.82;57.57
69780;BME280;57052;55.602;38.096;2023-07-22T05:47:05;99755.19;;;18.95;57.39
69780;BME280;57052;55.602;38.096;2023-07-22T05:49:31;99758.84;;;18.99;57.07
69780;BME280;57052;55.602;38.096;2023-07-22T05:51:57;99751.66;;;19.06;56.78
69780;BME280;57052;55.602;38.096;2023-07-22T05:54:22;99748.16;;;19.06;56.41
69780;BME280;57052;55.602;38.096;2023-07-22T05:56:48;99749.31;;;19.17;56.52
69780;BME280;57052;55.602;38.096;2023-07-22T05:59:13;99751.84;;;19.22;56.62
69780;BME280;57052;55.602;38.096;2023-07-22T06:01:39;99754.72;;;19.26;56.64
69780;BME280;57052;55.602;38.096;2023-07-22T06:04:06;99750.63;;;19.32;56.06
69780;BME280;57052;55.602;38.096;2023-07-22T06:06:31;99751.25;;;19.37;55.49
69780;BME280;57052;55.602;38.096;2023-07-22T06:08:57;99740.72;;;19.39;55.30
69780;BME280;57052;55.602;38.096;2023-07-22T06:11:23;99752.28;;;19.45;54.74
69780;BME280;57052;55.602;38.096;2023-07-22T06:13:49;99740.63;;;19.48;54.22
69780;BME280;57052;55.602;38.096;2023-07-22T06:16:14;99736.97;;;19.44;54.01
69780;BME280;57052;55.602;38.096;2023-07-22T06:18:40;99712.13;;;19.40;53.97
69780;BME280;57052;55.602;38.096;2023-07-22T06:21:06;99745.69;;;19.70;53.95
69780;BME280;57052;55.602;38.096;2023-07-22T06:23:32;99721.44;;;19.60;53.86
69780;BME280;57052;55.602;38.096;2023-07-22T06:25:58;99745.94;;;19.77;53.75
69780;BME280;57052;55.602;38.096;2023-07-22T06:28:23;99749.84;;;19.88;53.83
69780;BME280;57052;55.602;38.096;2023-07-22T06:30:49;99750.28;;;19.90;53.05
69780;BME280;57052;55.602;38.096;2023-07-22T06:33:14;99745.03;;;19.97;53.15
69780;BME280;57052;55.602;38.096;2023-07-22T06:35:41;99734.16;;;20.01;52.89
69780;BME280;57052;55.602;38.096;2023-07-22T06:38:07;99730.94;;;20.11;52.97
69780;BME280;57052;55.602;38.096;2023-07-22T06:40:33;99731.53;;;20.16;52.75
69780;BME280;57052;55.602;38.096;2023-07-22T06:42:58;99730.97;;;20.23;52.57
69780;BME280;57052;55.602;38.096;2023-07-22T06:45:24;99731.53;;;20.28;52.19
69780;BME280;57052;55.602;38.096;2023-07-22T06:47:50;99733.13;;;20.29;52.19
69780;BME280;57052;55.602;38.096;2023-07-22T06:50:15;99736.13;;;20.36;52.42
69780;BME280;57052;55.602;38.096;2023-07-22T06:52:41;99729.44;;;20.37;51.77
69780;BME280;57052;55.602;38.096;2023-07-22T06:55:07;99732.53;;;20.48;51.97
69780;BME280;57052;55.602;38.096;2023-07-22T06:57:33;99729.91;;;20.52;51.93
69780;BME280;57052;55.602;38.096;2023-07-22T06:59:59;99745.91;;;20.62;51.67
69780;BME280;57052;55.602;38.096;2023-07-22T07:02:25;99740.13;;;20.67;51.84
69780;BME280;57052;55.602;38.096;2023-07-22T07:04:51;99731.56;;;20.68;51.63
69780;BME280;57052;55.602;38.096;2023-07-22T07:07:16;99741.72;;;20.80;51.61
69780;BME280;57052;55.602;38.096;2023-07-22T07:09:42;99743.41;;;20.84;51.09
69780;BME280;57052;55.602;38.096;2023-07-22T07:12:08;99742.03;;;20.90;50.98
69780;BME280;57052;55.602;38.096;2023-07-22T07:14:35;99739.13;;;20.99;50.91
69780;BME280;57052;55.602;38.096;2023-07-22T07:17:01;99739.91;;;20.99;50.71
69780;BME280;57052;55.602;38.096;2023-07-22T07:19:27;99744.38;;;21.04;50.42
69780;BME280;57052;55.602;38.096;2023-07-22T07:21:53;99741.16;;;21.14;50.74
69780;BME280;57052;55.602;38.096;2023-07-22T07:24:19;99738.84;;;21.16;50.16
69780;BME280;57052;55.602;38.096;2023-07-22T07:26:45;99735.41;;;21.19;50.08
69780;BME280;57052;55.602;38.096;2023-07-22T07:29:11;99731.94;;;21.22;49.77
69780;BME280;57052;55.602;38.096;2023-07-22T07:31:38;99743.16;;;21.29;49.12
69780;BME280;57052;55.602;38.096;2023-07-22T07:34:03;99740.47;;;21.33;49.03
69780;BME280;57052;55.602;38.096;2023-07-22T07:36:29;99735.41;;;21.35;49.19
69780;BME280;57052;55.602;38.096;2023-07-22T07:38:55;99730.56;;;21.44;49.00
69780;BME280;57052;55.602;38.096;2023-07-22T07:41:21;99736.13;;;21.47;48.43
69780;BME280;57052;55.602;38.096;2023-07-22T07:43:46;99732.06;;;21.57;48.59
69780;BME280;57052;55.602;38.096;2023-07-22T07:46:28;99725.22;;;21.51;48.04
69780;BME280;57052;55.602;38.096;2023-07-22T07:48:58;99734.09;;;21.60;48.27
69780;BME280;57052;55.602;38.096;2023-07-22T07:51:28;99733.31;;;21.75;48.39
69780;BME280;57052;55.602;38.096;2023-07-22T07:53:56;99733.03;;;21.80;48.40
69780;BME280;57052;55.602;38.096;2023-07-22T07:56:24;99740.59;;;21.83;48.26
69780;BME280;57052;55.602;38.096;2023-07-22T07:58:50;99733.63;;;21.86;47.97
69780;BME280;57052;55.602;38.096;2023-07-22T08:01:16;99725.44;;;21.89;48.13
69780;BME280;57052;55.602;38.096;2023-07-22T08:03:43;99731.03;;;21.93;47.13
69780;BME280;57052;55.602;38.096;2023-07-22T08:06:09;99741.06;;;22.01;47.46
69780;BME280;57052;55.602;38.096;2023-07-22T08:08:36;99729.50;;;22.11;47.08
69780;BME280;57052;55.602;38.096;2023-07-22T08:11:09;99734.38;;;22.17;46.86
69780;BME280;57052;55.602;38.096;2023-07-22T08:13:37;99724.78;;;22.11;46.98
69780;BME280;57052;55.602;38.096;2023-07-22T08:16:06;99732.41;;;22.18;46.91
69780;BME280;57052;55.602;38.096;2023-07-22T08:18:33;99733.38;;;22.25;46.88
69780;BME280;57052;55.602;38.096;2023-07-22T08:21:00;99725.53;;;22.27;46.61
69780;BME280;57052;55.602;38.096;2023-07-22T08:23:26;99726.22;;;22.40;47.00
69780;BME280;57052;55.602;38.096;2023-07-22T08:25:52;99726.94;;;22.37;46.25
69780;BME280;57052;55.602;38.096;2023-07-22T08:28:18;99721.09;;;22.39;45.88
69780;BME280;57052;55.602;38.096;2023-07-22T08:30:43;99725.88;;;22.42;45.69
69780;BME280;57052;55.602;38.096;2023-07-22T08:33:11;99731.56;;;22.49;45.65
69780;BME280;57052;55.602;38.096;2023-07-22T08:35:38;99723.34;;;22.52;45.12
69780;BME280;57052;55.602;38.096;2023-07-22T08:38:05;99726.56;;;22.54;45.35
69780;BME280;57052;55.602;38.096;2023-07-22T08:40:38;99723.13;;;22.61;44.77
69780;BME280;57052;55.602;38.096;2023-07-22T08:43:05;99726.50;;;22.70;45.11
69780;BME280;57052;55.602;38.096;2023-07-22T08:45:33;99737.09;;;22.68;44.28
69780;BME280;57052;55.602;38.096;2023-07-22T08:48:05;99719.44;;;22.53;44.62
69780;BME280;57052;55.602;38.096;2023-07-22T08:50:46;99734.56;;;22.59;43.48
69780;BME280;57052;55.602;38.096;2023-07-22T08:53:13;99734.28;;;22.64;43.96
69780;BME280;57052;55.602;38.096;2023-07-22T08:55:41;99726.97;;;22.72;43.94
69780;BME280;57052;55.602;38.096;2023-07-22T08:58:11;99738.06;;;22.75;42.84
69780;BME280;57052;55.602;38.096;2023-07-22T09:00:38;99738.72;;;22.88;44.05
69780;BME280;57052;55.602;38.096;2023-07-22T09:03:05;99735.66;;;22.93;43.93
69780;BME280;57052;55.602;38.096;2023-07-22T09:05:32;99729.50;;;23.00;43.71
69780;BME280;57052;55.602;38.096;2023-07-22T09:07:59;99704.72;;;23.03;43.32
69780;BME280;57052;55.602;38.096;2023-07-22T09:10:27;99719.97;;;23.16;43.17
69780;BME280;57052;55.602;38.096;2023-07-22T09:12:53;99728.16;;;23.32;43.34
69780;BME280;57052;55.602;38.096;2023-07-22T09:15:19;99727.50;;;23.38;42.89
69780;BME280;57052;55.602;38.096;2023-07-22T09:17:46;99728.34;;;23.42;42.96
69780;BME280;57052;55.602;38.096;2023-07-22T09:20:12;99722.22;;;23.52;42.96
69780;BME280;57052;55.602;38.096;2023-07-22T09:22:46;99724.38;;;23.63;41.83
69780;BME280;57052;55.602;38.096;2023-07-22T09:25:13;99725.59;;;23.65;42.40
69780;BME280;57052;55.602;38.096;2023-07-22T09:27:43;99721.06;;;23.76;42.65
69780;BME280;57052;55.602;38.096;2023-07-22T09:30:32;99729.13;;;23.85;41.47
69780;BME280;57052;55.602;38.096;2023-07-22T09:33:00;99705.88;;;23.89;41.61
69780;BME280;57052;55.602;38.096;2023-07-22T09:35:29;99714.03;;;24.05;41.71
69780;BME280;57052;55.602;38.096;2023-07-22T09:37:56;99720.16;;;24.17;42.07
69780;BME280;57052;55.602;38.096;2023-07-22T09:40:26;99713.88;;;24.20;41.35
69780;BME280;57052;55.602;38.096;2023-07-22T09:42:57;99724.47;;;24.41;40.88
69780;BME280;57052;55.602;38.096;2023-07-22T09:45:30;99720.53;;;24.42;40.27
69780;BME280;57052;55.602;38.096;2023-07-22T09:47:56;99725.63;;;24.66;41.31
69780;BME280;57052;55.602;38.096;2023-07-22T09:50:24;99723.50;;;24.86;40.65
69780;BME280;57052;55.602;38.096;2023-07-22T09:52:56;99726.81;;;24.99;39.74
69780;BME280;57052;55.602;38.096;2023-07-22T09:55:27;99728.19;;;25.15;39.84
69780;BME280;57052;55.602;38.096;2023-07-22T10:00:24;99735.34;;;24.83;39.21
69780;BME280;57052;55.602;38.096;2023-07-22T10:02:56;99731.97;;;24.97;39.20
69780;BME280;57052;55.602;38.096;2023-07-22T10:05:21;99731.41;;;25.17;39.77
69780;BME280;57052;55.602;38.096;2023-07-22T10:07:58;99732.34;;;25.32;37.65
69780;BME280;57052;55.602;38.096;2023-07-22T10:10:43;99735.13;;;25.32;38.17
69780;BME280;57052;55.602;38.096;2023-07-22T10:13:10;99730.75;;;25.31;38.99
69780;BME280;57052;55.602;38.096;2023-07-22T10:15:36;99737.63;;;25.44;39.35
69780;BME280;57052;55.602;38.096;2023-07-22T10:18:04;99732.03;;;25.40;38.61
69780;BME280;57052;55.602;38.096;2023-07-22T10:20:31;99743.25;;;25.51;38.90
69780;BME280;57052;55.602;38.096;2023-07-22T10:23:00;99739.34;;;25.56;38.08
69780;BME280;57052;55.602;38.096;2023-07-22T10:25:26;99742.72;;;25.79;37.94
69780;BME280;57052;55.602;38.096;2023-07-22T10:27:52;99735.72;;;25.92;37.22
69780;BME280;57052;55.602;38.096;2023-07-22T10:30:19;99741.31;;;25.99;36.73
69780;BME280;57052;55.602;38.096;2023-07-22T10:32:47;99733.81;;;26.03;36.19
69780;BME280;57052;55.602;38.096;2023-07-22T10:38:14;99740.56;;;26.05;34.09
69780;BME280;57052;55.602;38.096;2023-07-22T10:40:59;99741.78;;;26.08;35.52
69780;BME280;57052;55.602;38.096;2023-07-22T10:43:32;99735.44;;;26.07;35.75
69780;BME280;57052;55.602;38.096;2023-07-22T10:46:06;99729.22;;;26.21;36.14
69780;BME280;57052;55.602;38.096;2023-07-22T10:48:35;99724.06;;;26.20;35.94
69780;BME280;57052;55.602;38.096;2023-07-22T10:51:14;99734.38;;;26.19;34.81
69780;BME280;57052;55.602;38.096;2023-07-22T10:53:46;99741.66;;;26.41;34.69
69780;BME280;57052;55.602;38.096;2023-07-22T10:56:20;99740.22;;;26.65;35.43
69780;BME280;57052;55.602;38.096;2023-07-22T11:01:23;99745.63;;;26.44;32.67
69780;BME280;57052;55.602;38.096;2023-07-22T11:12:15;99729.41;;;26.49;33.11
69780;BME280;57052;55.602;38.096;2023-07-22T11:17:12;99722.09;;;26.96;34.09
69780;BME280;57052;55.602;38.096;2023-07-22T11:19:38;99740.91;;;27.38;33.74
69780;BME280;57052;55.602;38.096;2023-07-22T11:22:04;99736.56;;;27.47;33.24
69780;BME280;57052;55.602;38.096;2023-07-22T11:24:33;99738.16;;;27.52;32.71
69780;BME280;57052;55.602;38.096;2023-07-22T11:27:03;99721.75;;;27.04;32.85
69780;BME280;57052;55.602;38.096;2023-07-22T11:29:28;99737.19;;;26.98;33.53
69780;BME280;57052;55.602;38.096;2023-07-22T11:31:54;99746.63;;;26.76;33.51
69780;BME280;57052;55.602;38.096;2023-07-22T11:34:24;99758.03;;;26.60;33.41
69780;BME280;57052;55.602;38.096;2023-07-22T11:36:51;99754.91;;;26.65;33.95
69780;BME280;57052;55.602;38.096;2023-07-22T11:39:19;99760.47;;;26.72;33.93
69780;BME280;57052;55.602;38.096;2023-07-22T11:41:46;99752.09;;;26.62;34.23
69780;BME280;57052;55.602;38.096;2023-07-22T11:44:14;99756.84;;;26.58;34.17
69780;BME280;57052;55.602;38.096;2023-07-22T11:47:18;99748.16;;;26.70;34.63
69780;BME280;57052;55.602;38.096;2023-07-22T11:49:47;99751.09;;;27.02;34.41
69780;BME280;57052;55.602;38.096;2023-07-22T11:52:17;99747.16;;;27.06;32.82
69780;BME280;57052;55.602;38.096;2023-07-22T11:54:45;99751.56;;;27.18;33.05
69780;BME280;57052;55.602;38.096;2023-07-22T11:59:50;99740.59;;;27.78;32.92
69780;BME280;57052;55.602;38.096;2023-07-22T12:02:24;99733.03;;;27.96;30.76
69780;BME280;57052;55.602;38.096;2023-07-22T12:04:56;99751.34;;;28.11;29.89
69780;BME280;57052;55.602;38.096;2023-07-22T12:07:26;99735.03;;;28.17;30.10
69780;BME280;57052;55.602;38.096;2023-07-22T12:09:54;99732.63;;;28.40;31.28
69780;BME280;57052;55.602;38.096;2023-07-22T12:12:20;99739.34;;;28.64;30.94
69780;BME280;57052;55.602;38.096;2023-07-22T12:14:45;99738.91;;;28.69;30.72
69780;BME280;57052;55.602;38.096;2023-07-22T12:17:11;99727.44;;;28.45;31.35
69780;BME280;57052;55.602;38.096;2023-07-22T12:19:37;99731.41;;;28.34;30.88
69780;BME280;57052;55.602;38.096;2023-07-22T12:22:03;99733.38;;;28.44;31.34
69780;BME280;57052;55.602;38.096;2023-07-22T12:24:29;99738.22;;;28.12;31.50
69780;BME280;57052;55.602;38.096;2023-07-22T12:26:55;99721.09;;;27.92;32.10
69780;BME280;57052;55.602;38.096;2023-07-22T12:29:20;99716.34;;;28.07;31.85
69780;BME280;57052;55.602;38.096;2023-07-22T12:31:48;99714.31;;;28.32;30.86
69780;BME280;57052;55.602;38.096;2023-07-22T12:34:14;99718.28;;;28.45;30.89
69780;BME280;57052;55.602;38.096;2023-07-22T12:36:40;99719.84;;;28.53;30.64
69780;BME280;57052;55.602;38.096;2023-07-22T12:39:06;99712.34;;;28.36;30.88
69780;BME280;57052;55.602;38.096;2023-07-22T12:41:32;99720.31;;;27.81;31.20
69780;BME280;57052;55.602;38.096;2023-07-22T12:43:58;99718.31;;;27.81;31.58
69780;BME280;57052;55.602;38.096;2023-07-22T12:46:23;99717.94;;;27.90;31.54
69780;BME280;57052;55.602;38.096;2023-07-22T12:48:49;99715.56;;;27.85;30.83
69780;BME280;57052;55.602;38.096;2023-07-22T12:51:15;99720.69;;;27.76;30.68
69780;BME280;57052;55.602;38.096;2023-07-22T12:53:40;99698.84;;;27.71;30.71
69780;BME280;57052;55.602;38.096;2023-07-22T12:56:06;99718.72;;;27.62;30.56
69780;BME280;57052;55.602;38.096;2023-07-22T12:58:32;99704.75;;;27.38;30.51
69780;BME280;57052;55.602;38.096;2023-07-22T13:00:58;99703.16;;;27.36;30.69
69780;BME280;57052;55.602;38.096;2023-07-22T13:03:24;99692.44;;;27.35;30.60
69780;BME280;57052;55.602;38.096;2023-07-22T13:05:50;99685.69;;;27.29;30.69
69780;BME280;57052;55.602;38.096;2023-07-22T13:08:16;99694.41;;;27.24;30.69
69780;BME280;57052;55.602;38.096;2023-07-22T13:10:41;99676.09;;;27.09;30.92
69780;BME280;57052;55.602;38.096;2023-07-22T13:13:10;99687.19;;;27.02;31.11